Terminal Aerodrome Forecast
Issued by NWS

Home | Current Version | Previous Version | Text Only | Print | Product List | Glossary On
Versions: 1 2 3 4 5 6 7 8 9 10 11 12 13 14 15 16 17 18 19 20 21 22 23 24 25 26 27 28 29 30 31 32
000
FTUS41 KRNK 031733
TAFLWB
TAF
KLWB 031733Z 0318/0418 34004KT P6SM VCTS BKN040CB
     FM032000 34005KT P6SM VCSH BKN050
     FM040000 00000KT P6SM BKN050
     FM040800 00000KT 1/4SM FG BKN001
     FM041400 00000KT P6SM SCT040
     FM041600 06003KT P6SM VCSH BKN040=

USA.gov is the U.S. government's official web portal to all federal, state and local government web resources and services.